Time;durP1;ratioP1;P1;durP2;ratioP2;P2;SDS_P1;SDS_P2;PMS_P1;PMS_P2;Temp;Humidity;BMP_temperature;BMP_pressure;BME280_temperature;BME280_humidity;BME280_pressure;Samples;Min_cycle;Max_cycle;Signal;HPM_P1;HPM_P2
2022/11/26 00:00:24;;;;;;;;;9.80;9.40;;;;;8.73;81.45;100779.34;5115750;28;8835;-58
2022/11/26 00:02:52;;;;;;;;;7.00;6.50;;;;;8.68;81.09;100792.00;5115912;28;8820;-58
2022/11/26 00:05:20;;;;;;;;;7.20;6.00;;;;;8.64;80.92;100790.50;5115793;28;8820;-58
2022/11/26 00:07:48;;;;;;;;;12.00;9.25;;;;;8.59;81.32;100784.59;5100837;28;8818;-57
2022/11/26 00:10:18;;;;;;;;;9.60;8.60;;;;;8.55;81.57;100787.50;5094686;28;8854;-58
2022/11/26 00:12:46;;;;;;;;;8.50;6.75;;;;;8.50;81.28;100782.47;5094228;28;8829;-56
2022/11/26 00:15:13;;;;;;;;;11.50;10.50;;;;;8.46;81.66;100782.75;5095046;28;8833;-59
2022/11/26 00:17:41;;;;;;;;;10.00;10.00;;;;;8.43;81.07;100782.94;5094820;28;8838;-57
2022/11/26 00:20:09;;;;;;;;;11.00;10.33;;;;;8.40;81.53;100799.00;5094575;28;8845;-59
2022/11/26 00:22:37;;;;;;;;;9.75;8.00;;;;;8.37;82.06;100794.72;5094899;28;9471;-56
2022/11/26 00:25:04;;;;;;;;;12.00;10.00;;;;;8.35;81.58;100793.97;5112866;28;8816;-58
2022/11/26 00:27:32;;;;;;;;;10.40;10.00;;;;;8.34;82.26;100799.34;5115121;28;8820;-57
2022/11/26 00:29:59;;;;;;;;;10.40;10.40;;;;;8.33;81.77;100803.81;5115469;28;8824;-56
2022/11/26 00:32:27;;;;;;;;;5.80;5.20;;;;;8.32;81.97;100809.19;5115797;28;8861;-58
2022/11/26 00:34:56;;;;;;;;;9.00;7.25;;;;;8.30;81.81;100813.75;5115828;28;8828;-57
2022/11/26 00:37:23;;;;;;;;;10.00;9.20;;;;;8.28;81.92;100808.53;5115262;28;8827;-58
2022/11/26 00:39:51;;;;;;;;;6.60;6.60;;;;;8.26;81.70;100813.06;5115735;28;8819;-58
2022/11/26 00:42:19;;;;;;;;;10.80;10.00;;;;;8.25;81.73;100829.06;5115469;28;9552;-58
2022/11/26 00:44:47;;;;;;;;;15.00;12.60;;;;;8.21;81.85;100830.19;5115107;28;8865;-59
2022/11/26 00:47:18;;;;;;;;;15.80;11.60;;;;;8.17;82.25;100829.47;5115944;28;8828;-58
2022/11/26 00:49:46;;;;;;;;;15.20;12.60;;;;;8.15;82.02;100827.84;5115538;28;9025;-56
2022/11/26 00:52:13;;;;;;;;;14.80;14.00;;;;;8.13;82.19;100829.72;5114955;28;9541;-58
2022/11/26 00:54:41;;;;;;;;;9.20;8.60;;;;;8.09;82.11;100838.78;5114570;28;8816;-58
2022/11/26 00:57:09;;;;;;;;;15.80;13.40;;;;;8.08;82.41;100840.59;5116095;27;8824;-58
2022/11/26 00:59:37;;;;;;;;;9.00;7.00;;;;;8.08;82.37;100832.63;5118313;28;8827;-56
2022/11/26 01:02:04;;;;;;;;;12.20;12.20;;;;;8.09;82.02;100838.78;5117612;28;8839;-58
2022/11/26 01:04:32;;;;;;;;;8.20;8.20;;;;;8.08;82.05;100837.94;5117930;28;8912;-56
2022/11/26 01:07:00;;;;;;;;;14.20;13.40;;;;;8.09;82.04;100844.97;5109962;28;8822;-56
2022/11/26 01:09:28;;;;;;;;;12.80;11.60;;;;;8.12;81.72;100850.09;5097685;28;8825;-58
2022/11/26 01:11:55;;;;;;;;;12.40;10.40;;;;;8.14;82.26;100861.44;5098076;28;8826;-55
2022/11/26 01:14:23;;;;;;;;;9.40;9.20;;;;;8.14;81.91;100861.44;5098424;28;8834;-57
2022/11/26 01:16:51;;;;;;;;;12.00;10.00;;;;;8.15;82.10;100864.97;5098359;28;8833;-59
2022/11/26 01:19:18;;;;;;;;;12.60;9.60;;;;;8.14;82.33;100869.41;5098754;28;9546;-57
2022/11/26 01:21:47;;;;;;;;;9.20;7.60;;;;;8.13;82.41;100869.53;5098336;28;8837;-55
2022/11/26 01:24:14;;;;;;;;;12.00;7.40;;;;;8.13;82.54;100877.47;5109555;28;8858;-56
2022/11/26 01:26:42;;;;;;;;;11.60;10.80;;;;;8.09;82.27;100876.78;5119002;28;8913;-57
2022/11/26 01:29:10;;;;;;;;;13.60;10.80;;;;;8.10;82.42;100874.97;5119070;28;8828;-58
2022/11/26 01:31:38;;;;;;;;;9.60;8.40;;;;;8.08;82.54;100877.72;5118220;28;8900;-56
2022/11/26 01:34:06;;;;;;;;;14.20;11.60;;;;;8.06;82.15;100879.59;5118534;28;8835;-58
2022/11/26 01:36:35;;;;;;;;;15.60;14.00;;;;;8.05;82.23;100892.94;5118671;28;8820;-56
2022/11/26 01:39:03;;;;;;;;;12.00;10.00;;;;;8.02;82.34;100883.38;5118011;28;8828;-58
2022/11/26 01:41:31;;;;;;;;;1.00;0.00;;;;;8.00;81.90;100890.53;5118074;28;8838;-58
2022/11/26 01:43:58;;;;;;;;;11.20;11.20;;;;;7.98;82.63;100897.72;5117953;28;8836;-58
2022/11/26 01:46:26;;;;;;;;;4.40;3.80;;;;;7.98;82.43;100895.06;5118700;28;8878;-58
2022/11/26 01:48:55;;;;;;;;;10.60;10.40;;;;;7.98;82.41;100888.91;5118436;28;8842;-58
2022/11/26 01:51:23;;;;;;;;;7.00;6.60;;;;;7.97;82.50;100901.31;5118425;28;8840;-57
2022/11/26 01:53:51;;;;;;;;;11.20;9.60;;;;;7.99;82.68;100904.72;5118354;28;8816;-56
2022/11/26 01:56:19;;;;;;;;;6.60;6.20;;;;;8.02;82.08;100907.22;5117842;28;8893;-57
2022/11/26 01:58:47;;;;;;;;;8.40;7.80;;;;;8.07;82.24;100907.81;5117212;28;9565;-58
2022/11/26 02:01:15;;;;;;;;;4.80;4.80;;;;;8.09;82.64;100899.78;5117897;28;9519;-56
2022/11/26 02:03:43;;;;;;;;;10.00;9.00;;;;;8.10;82.62;100915.63;5117632;28;9486;-57
2022/11/26 02:06:10;;;;;;;;;8.40;6.60;;;;;8.12;82.05;100910.22;5116737;28;8832;-58
2022/11/26 02:08:38;;;;;;;;;7.40;7.00;;;;;8.13;81.94;100907.50;5096841;28;8838;-57
2022/11/26 02:11:06;;;;;;;;;4.40;3.80;;;;;8.14;82.08;100908.38;5097108;28;8826;-58
2022/11/26 02:13:34;;;;;;;;;11.00;8.60;;;;;8.13;81.94;100888.09;5097513;28;9486;-58
2022/11/26 02:16:02;;;;;;;;;9.60;7.80;;;;;8.11;82.07;100900.56;5097516;28;8845;-58
2022/11/26 02:18:29;;;;;;;;;11.60;10.00;;;;;8.09;82.47;100907.75;5096933;28;8826;-58
2022/11/26 02:20:57;;;;;;;;;8.60;7.00;;;;;8.07;82.14;100909.63;5097008;28;8858;-58
2022/11/26 02:23:24;;;;;;;;;17.60;11.40;;;;;8.04;82.48;100915.94;5101505;28;8916;-58
2022/11/26 02:25:52;;;;;;;;;11.60;10.20;;;;;8.04;82.36;100920.38;5118455;28;8820;-58
2022/11/26 02:28:20;;;;;;;;;7.40;7.00;;;;;8.03;82.05;100922.19;5118461;28;8820;-57
2022/11/26 02:30:47;;;;;;;;;11.80;10.20;;;;;8.04;82.29;100923.03;5118067;28;8835;-59
2022/11/26 02:33:15;;;;;;;;;8.80;6.40;;;;;8.06;81.81;100923.84;5117231;28;8824;-56
2022/11/26 02:35:43;;;;;;;;;13.00;10.00;;;;;8.08;82.38;100929.91;5117959;28;8823;-58
2022/11/26 02:38:12;;;;;;;;;9.80;8.60;;;;;8.09;82.42;100926.31;5117307;28;8823;-59
2022/11/26 02:40:40;;;;;;;;;9.60;9.20;;;;;8.07;82.19;100921.09;5117464;28;9517;-59
2022/11/26 02:43:08;;;;;;;;;15.60;12.00;;;;;8.03;82.39;100922.19;5116834;28;8851;-59
2022/11/26 02:45:35;;;;;;;;;6.80;6.00;;;;;8.00;82.05;100919.69;5116581;28;8900;-59
2022/11/26 02:48:03;;;;;;;;;10.80;9.00;;;;;7.96;82.26;100915.50;5116746;28;8827;-57
2022/11/26 02:50:31;;;;;;;;;9.80;9.00;;;;;7.92;82.58;100913.94;5117054;28;8832;-58
2022/11/26 02:52:58;;;;;;;;;13.20;11.40;;;;;7.89;82.54;100919.44;5116619;28;8850;-59
2022/11/26 02:55:26;;;;;;;;;6.20;6.00;;;;;7.88;82.87;100916.84;5116517;28;8823;-58
2022/11/26 02:57:54;;;;;;;;;9.00;8.20;;;;;7.84;83.13;100925.91;5116731;28;8824;-59
2022/11/26 03:00:22;;;;;;;;;10.00;8.20;;;;;7.78;82.70;100921.81;5117713;28;8919;-58
2022/11/26 03:02:49;;;;;;;;;9.20;8.40;;;;;7.73;83.09;100926.47;5116514;28;8978;-58
2022/11/26 03:05:17;;;;;;;;;5.60;5.60;;;;;7.67;83.00;100920.66;5117588;28;9525;-58
2022/11/26 03:07:45;;;;;;;;;9.80;6.20;;;;;7.60;82.69;100915.72;5117141;28;8824;-59
2022/11/26 03:10:13;;;;;;;;;9.60;7.80;;;;;7.55;83.20;100913.31;5117005;28;8812;-58
2022/11/26 03:12:41;;;;;;;;;11.20;9.00;;;;;7.49;82.71;100908.34;5117226;28;8831;-59
2022/11/26 03:15:10;;;;;;;;;10.20;9.00;;;;;7.44;83.21;100917.47;5116638;28;8832;-57
2022/11/26 03:17:37;;;;;;;;;6.00;3.80;;;;;7.38;83.00;100920.41;5117050;28;9564;-59
2022/11/26 03:20:05;;;;;;;;;11.00;9.40;;;;;7.32;83.22;100912.78;5116504;28;8834;-58
2022/11/26 03:22:33;;;;;;;;;10.40;9.20;;;;;7.27;83.53;100906.88;5115690;28;9497;-58
2022/11/26 03:25:01;;;;;;;;;7.00;7.00;;;;;7.21;84.04;100915.13;5117038;28;9501;-58
2022/11/26 03:27:28;;;;;;;;;9.40;7.80;;;;;7.16;83.50;100914.50;5116908;28;8900;-59
2022/11/26 03:29:56;;;;;;;;;6.00;4.80;;;;;7.11;83.91;100906.78;5116585;28;8828;-59
2022/11/26 03:32:23;;;;;;;;;7.80;5.60;;;;;7.10;83.86;100904.19;5115590;28;8939;-57
2022/11/26 03:34:51;;;;;;;;;6.80;6.80;;;;;7.08;84.00;100921.97;5115550;28;8815;-58
2022/11/26 03:37:19;;;;;;;;;8.80;8.00;;;;;7.06;84.00;100915.88;5115743;28;8912;-59
2022/11/26 03:39:47;;;;;;;;;3.00;3.00;;;;;7.04;84.01;100923.06;5115278;28;8831;-58
2022/11/26 03:42:15;;;;;;;;;7.80;7.00;;;;;7.02;83.92;100923.13;5115496;28;9589;-56
2022/11/26 03:44:42;;;;;;;;;1.40;1.00;;;;;7.01;84.37;100932.00;5115112;28;8838;-59
2022/11/26 03:47:10;;;;;;;;;9.40;8.20;;;;;7.02;83.82;100919.59;5114958;28;8912;-58
2022/11/26 03:49:38;;;;;;;;;7.80;6.20;;;;;6.96;84.01;100920.78;5115479;28;8851;-58
2022/11/26 03:52:06;;;;;;;;;8.60;7.00;;;;;6.90;83.88;100922.88;5115364;28;8836;-58
2022/11/26 03:54:34;;;;;;;;;4.00;3.80;;;;;6.80;84.15;100935.69;5115135;28;8908;-59
2022/11/26 03:57:02;;;;;;;;;9.00;7.00;;;;;6.75;84.14;100928.91;5114876;28;8895;-58
2022/11/26 03:59:30;;;;;;;;;8.40;7.40;;;;;6.69;84.29;100923.91;5114578;28;8840;-57
2022/11/26 04:01:57;;;;;;;;;5.60;4.80;;;;;6.63;83.89;100929.50;5113973;28;8848;-58
2022/11/26 04:04:25;;;;;;;;;8.40;6.40;;;;;6.54;84.37;100936.06;5114306;28;8836;-59
2022/11/26 04:06:53;;;;;;;;;6.80;5.20;;;;;6.46;84.48;100940.88;5114579;28;8816;-58
2022/11/26 04:09:20;;;;;;;;;9.00;7.40;;;;;6.38;84.57;100945.66;5114640;28;8816;-58
2022/11/26 04:11:48;;;;;;;;;6.20;6.20;;;;;6.31;85.05;100952.16;5115059;28;8832;-59
2022/11/26 04:14:16;;;;;;;;;6.40;6.20;;;;;6.27;84.70;100957.66;5114861;28;8828;-58
2022/11/26 04:16:43;;;;;;;;;4.40;4.40;;;;;6.21;84.70;100953.53;5114673;28;8835;-58
2022/11/26 04:19:11;;;;;;;;;8.20;8.20;;;;;6.16;84.42;100957.31;5115586;28;8824;-59
2022/11/26 04:21:39;;;;;;;;;5.20;4.00;;;;;6.11;84.97;100968.09;5115973;28;9578;-58
2022/11/26 04:24:06;;;;;;;;;9.00;9.00;;;;;6.07;84.93;100965.66;5114973;28;8820;-58
2022/11/26 04:26:34;;;;;;;;;6.00;6.00;;;;;6.07;84.88;100968.31;5116120;28;8858;-58
2022/11/26 04:29:02;;;;;;;;;6.60;6.40;;;;;6.08;84.92;100975.31;5115396;28;8835;-59
2022/11/26 04:31:29;;;;;;;;;4.40;4.40;;;;;6.11;84.72;100976.03;5115764;28;8835;-58
2022/11/26 04:33:57;;;;;;;;;8.80;8.00;;;;;6.16;84.73;100981.09;5119074;28;8823;-58
2022/11/26 04:36:25;;;;;;;;;4.00;4.00;;;;;6.20;85.03;100987.97;5119738;28;8850;-58
2022/11/26 04:38:52;;;;;;;;;8.60;8.20;;;;;6.25;84.85;100997.41;5119608;28;8840;-59
2022/11/26 04:41:20;;;;;;;;;6.40;6.00;;;;;6.33;84.54;100991.78;5119651;28;9540;-57
2022/11/26 04:43:48;;;;;;;;;4.40;3.40;;;;;6.45;84.22;100999.16;5119136;28;8835;-59
2022/11/26 04:46:16;;;;;;;;;10.40;6.80;;;;;6.55;84.13;101005.72;5118688;28;8808;-59
2022/11/26 04:48:44;;;;;;;;;11.00;9.80;;;;;6.66;84.14;101003.47;5119226;28;8836;-59
2022/11/26 04:51:12;;;;;;;;;7.20;6.60;;;;;6.77;83.80;101011.75;5118747;28;8840;-59
2022/11/26 04:53:41;;;;;;;;;12.80;10.00;;;;;6.85;83.28;101012.25;5117852;28;9504;-59
2022/11/26 04:56:08;;;;;;;;;8.20;6.60;;;;;6.89;83.21;101017.31;5118640;28;8866;-58
2022/11/26 04:58:36;;;;;;;;;10.00;9.00;;;;;6.93;82.83;101025.97;5118828;28;8819;-58
2022/11/26 05:01:04;;;;;;;;;5.60;3.40;;;;;6.93;83.30;101023.31;5119012;28;8843;-59
2022/11/26 05:03:32;;;;;;;;;4.40;3.60;;;;;6.93;82.69;101026.84;5118566;28;8820;-58
2022/11/26 05:06:00;;;;;;;;;8.80;6.80;;;;;6.91;83.48;101031.31;5118619;28;8820;-59
2022/11/26 05:08:28;;;;;;;;;9.40;6.80;;;;;6.88;83.24;101031.47;5118729;28;8869;-58
2022/11/26 05:10:57;;;;;;;;;8.60;8.60;;;;;6.87;83.46;101029.78;5119356;28;8832;-59
2022/11/26 05:13:24;;;;;;;;;16.40;12.20;;;;;6.84;83.36;101032.53;5119024;28;8832;-59
2022/11/26 05:15:52;;;;;;;;;12.00;10.80;;;;;6.80;83.07;101032.75;5118802;28;8820;-58
2022/11/26 05:18:20;;;;;;;;;8.60;7.80;;;;;6.77;83.52;101041.72;5119027;28;8832;-59
2022/11/26 05:20:48;;;;;;;;;15.20;13.60;;;;;6.76;83.49;101047.09;5118803;28;8897;-59
2022/11/26 05:23:15;;;;;;;;;12.00;10.00;;;;;6.74;83.73;101048.94;5118422;28;8832;-59
2022/11/26 05:25:43;;;;;;;;;11.60;10.00;;;;;6.72;83.62;101048.13;5118739;28;8836;-58
2022/11/26 05:28:11;;;;;;;;;12.80;11.60;;;;;6.70;83.66;101044.72;5119190;28;9164;-59
2022/11/26 05:30:39;;;;;;;;;8.40;7.00;;;;;6.70;83.62;101047.38;5118551;28;8835;-58
2022/11/26 05:33:06;;;;;;;;;9.00;7.00;;;;;6.69;83.88;101049.13;5118887;28;8850;-58
2022/11/26 05:35:34;;;;;;;;;12.80;12.00;;;;;6.71;83.56;101057.00;5118281;28;8916;-58
2022/11/26 05:38:01;;;;;;;;;9.80;8.60;;;;;6.73;83.66;101055.16;5118400;28;8816;-59
2022/11/26 05:40:29;;;;;;;;;15.00;12.60;;;;;6.71;83.64;101054.38;5118130;28;8863;-59
2022/11/26 05:42:58;;;;;;;;;8.20;7.60;;;;;6.70;83.56;101060.59;5117867;28;8835;-59
2022/11/26 05:45:26;;;;;;;;;11.80;10.20;;;;;6.68;83.91;101065.09;5117323;28;8844;-59
2022/11/26 05:47:54;;;;;;;;;4.80;3.80;;;;;6.64;83.74;101055.56;5117817;28;8815;-59
2022/11/26 05:50:21;;;;;;;;;7.00;5.20;;;;;6.62;83.57;101054.78;5118090;28;8890;-59
2022/11/26 05:52:49;;;;;;;;;1.80;1.40;;;;;6.58;83.96;101048.78;5117977;28;8828;-59
2022/11/26 05:55:18;;;;;;;;;8.40;6.60;;;;;6.54;83.74;101059.56;5118189;28;8846;-59
2022/11/26 05:57:45;;;;;;;;;6.00;6.00;;;;;6.50;84.10;101063.28;5118229;28;8808;-58
2022/11/26 06:00:13;;;;;;;;;12.00;9.80;;;;;6.47;83.84;101071.38;5117742;28;8848;-61
2022/11/26 06:02:40;;;;;;;;;10.40;7.80;;;;;6.46;83.89;101065.19;5116529;28;8824;-59
2022/11/26 06:05:08;;;;;;;;;11.60;11.20;;;;;6.48;83.95;101073.06;5118536;28;8846;-59
2022/11/26 06:07:36;;;;;;;;;9.00;7.80;;;;;6.44;83.84;101077.66;5118364;28;9623;-59
2022/11/26 06:10:11;;;;;;;;;11.20;9.20;;;;;6.46;84.17;101067.00;5118273;28;8816;-59
2022/11/26 06:12:38;;;;;;;;;10.20;9.00;;;;;6.49;84.07;101075.66;5117509;28;8892;-57
2022/11/26 06:15:06;;;;;;;;;10.00;7.80;;;;;6.52;84.14;101075.50;5117988;28;8819;-58
2022/11/26 06:17:34;;;;;;;;;9.00;6.80;;;;;6.56;83.56;101073.59;5118068;28;8816;-59
2022/11/26 06:20:03;;;;;;;;;7.00;6.60;;;;;6.59;83.97;101081.41;5117107;28;8889;-59
2022/11/26 06:22:31;;;;;;;;;9.60;8.60;;;;;6.57;83.83;101073.53;5117301;28;9544;-58
2022/11/26 06:24:59;;;;;;;;;18.20;12.20;;;;;6.58;84.10;101075.25;5117111;28;8828;-59
2022/11/26 06:27:26;;;;;;;;;9.00;7.00;;;;;6.59;84.14;101081.41;5117291;28;8872;-57
2022/11/26 06:29:54;;;;;;;;;8.60;7.80;;;;;6.57;83.72;101089.41;5117925;28;8838;-59
2022/11/26 06:32:23;;;;;;;;;9.00;8.00;;;;;6.55;84.22;101091.28;5117817;28;8816;-58
2022/11/26 06:34:50;;;;;;;;;8.60;6.20;;;;;6.52;83.70;101101.97;5117363;28;8847;-59
2022/11/26 06:37:21;;;;;;;;;9.00;8.20;;;;;6.50;83.96;101108.25;5116730;28;9509;-58
2022/11/26 06:39:48;;;;;;;;;7.20;4.80;;;;;6.48;83.82;101115.41;5116656;28;8854;-59
2022/11/26 06:42:16;;;;;;;;;6.40;5.60;;;;;6.48;83.88;101115.41;5117177;28;8836;-58
2022/11/26 06:44:45;;;;;;;;;8.60;5.60;;;;;6.50;83.74;101116.19;5116593;28;9477;-59
2022/11/26 06:47:12;;;;;;;;;8.60;6.20;;;;;6.51;83.99;101115.28;5115502;28;8862;-58
2022/11/26 06:49:40;;;;;;;;;6.20;5.40;;;;;6.50;84.23;101118.84;5115879;28;9538;-59
2022/11/26 06:52:08;;;;;;;;;5.20;4.40;;;;;6.48;83.34;101118.06;5116149;28;9570;-58
2022/11/26 06:54:36;;;;;;;;;9.80;9.80;;;;;6.46;84.12;101117.28;5115745;28;8812;-58
2022/11/26 06:57:05;;;;;;;;;7.60;6.60;;;;;6.46;83.50;101117.28;5115866;28;8954;-59
2022/11/26 06:59:33;;;;;;;;;8.20;6.80;;;;;6.42;84.01;101119.19;5115835;28;8819;-58
2022/11/26 07:02:02;;;;;;;;;4.00;4.00;;;;;6.40;84.09;101117.53;5116187;28;8807;-59
2022/11/26 07:04:29;;;;;;;;;8.20;8.20;;;;;6.40;84.51;101128.13;5116644;28;8840;-58
2022/11/26 07:06:57;;;;;;;;;12.20;10.80;;;;;6.36;83.99;101118.63;5116167;28;8827;-59
2022/11/26 07:09:25;;;;;;;;;6.00;6.00;;;;;6.33;84.15;101129.31;5116097;28;8856;-56
2022/11/26 07:11:53;;;;;;;;;7.80;5.60;;;;;6.31;84.29;101133.81;5114121;28;8816;-57
2022/11/26 07:14:21;;;;;;;;;6.00;5.20;;;;;6.29;84.40;101125.09;5114527;28;8823;-58
2022/11/26 07:16:49;;;;;;;;;8.00;7.80;;;;;6.25;84.33;101127.00;5114492;28;8812;-58
2022/11/26 07:19:16;;;;;;;;;6.40;5.20;;;;;6.24;83.93;101135.88;5113689;28;8843;-58
2022/11/26 07:21:45;;;;;;;;;6.80;4.00;;;;;6.20;84.53;101126.34;5112739;28;8848;-58
2022/11/26 07:24:12;;;;;;;;;9.20;9.00;;;;;6.16;84.31;101132.66;5112005;28;8820;-57
2022/11/26 07:26:40;;;;;;;;;12.20;9.20;;;;;6.12;84.05;101133.75;5112919;28;8832;-58
2022/11/26 07:29:08;;;;;;;;;4.00;3.80;;;;;6.11;84.43;101141.72;5112855;28;8827;-58
2022/11/26 07:31:36;;;;;;;;;6.40;6.20;;;;;6.11;84.32;101145.25;5113881;28;9600;-57
2022/11/26 07:34:04;;;;;;;;;7.20;6.20;;;;;6.14;84.02;101149.53;5114290;28;8847;-58
2022/11/26 07:36:32;;;;;;;;;11.00;6.60;;;;;6.19;84.48;101159.00;5114518;28;8838;-59
2022/11/26 07:38:59;;;;;;;;;10.20;9.60;;;;;6.23;84.28;101142.06;5114659;28;9532;-58
2022/11/26 07:41:27;;;;;;;;;1.00;1.00;;;;;6.28;84.00;101141.84;5114851;28;8831;-59
2022/11/26 07:43:55;;;;;;;;;8.20;8.20;;;;;6.32;84.02;101141.69;5115331;28;8839;-58
2022/11/26 07:46:23;;;;;;;;;5.60;4.00;;;;;6.38;83.65;101140.56;5114999;28;8836;-59
2022/11/26 07:48:51;;;;;;;;;7.80;6.40;;;;;6.42;83.76;101152.72;5115172;28;8812;-58
2022/11/26 07:51:18;;;;;;;;;7.60;4.20;;;;;6.46;83.86;101141.09;5115119;28;8856;-58
2022/11/26 07:53:46;;;;;;;;;4.80;4.00;;;;;6.51;83.85;101139.94;5107962;28;8846;-58
2022/11/26 07:56:14;;;;;;;;;10.80;8.20;;;;;6.57;83.60;101136.16;5093883;28;8821;-58
2022/11/26 07:58:42;;;;;;;;;7.00;7.00;;;;;6.60;83.36;101144.81;5093806;28;8849;-58
2022/11/26 08:01:09;;;;;;;;;9.20;8.60;;;;;6.65;83.38;101144.63;5093878;28;8833;-58
2022/11/26 08:03:38;;;;;;;;;13.60;12.20;;;;;6.69;83.28;101154.16;5094702;28;8833;-58
2022/11/26 08:06:06;;;;;;;;;14.60;11.20;;;;;6.75;83.26;101156.53;5094497;28;8830;-59
2022/11/26 08:08:34;;;;;;;;;9.40;9.00;;;;;6.79;83.19;101153.69;5093561;28;8826;-58
2022/11/26 08:11:02;;;;;;;;;10.80;9.20;;;;;6.89;83.20;101165.56;5094721;28;8814;-58
2022/11/26 08:13:30;;;;;;;;;8.40;6.40;;;;;6.98;83.38;101162.50;5094654;28;8830;-56
2022/11/26 08:15:58;;;;;;;;;7.40;7.00;;;;;7.11;83.00;101174.25;5094575;28;8826;-59
2022/11/26 08:18:25;;;;;;;;;13.80;11.80;;;;;7.32;83.08;101172.41;5094500;28;8824;-58
2022/11/26 08:20:53;;;;;;;;;15.20;11.40;;;;;7.56;82.33;101179.19;5093646;28;8830;-58
2022/11/26 08:23:22;;;;;;;;;8.20;7.00;;;;;7.73;81.88;101173.03;5093338;28;8818;-56
2022/11/26 08:25:50;;;;;;;;;8.60;7.00;;;;;7.86;81.50;101168.84;5093225;28;8842;-59
2022/11/26 08:28:38;;;;;;;;;9.60;9.00;;;;;7.94;81.36;101174.63;5091926;28;8923;-58
2022/11/26 08:31:05;;;;;;;;;12.20;9.80;;;;;7.96;81.51;101170.09;5092201;28;8825;-58
2022/11/26 08:33:35;;;;;;;;;11.40;10.60;;;;;7.96;81.69;101170.09;5091867;28;8826;-58
2022/11/26 08:36:02;;;;;;;;;8.80;6.40;;;;;7.97;81.33;101169.16;5092946;28;8848;-56
2022/11/26 08:38:35;;;;;;;;;7.40;6.40;;;;;7.99;81.82;101175.25;5091859;28;9075;-59
2022/11/26 08:41:02;;;;;;;;;10.00;9.00;;;;;8.00;81.80;101182.25;5091019;28;8830;-59
2022/11/26 08:43:31;;;;;;;;;9.20;8.40;;;;;8.02;81.54;101177.75;5091593;28;8845;-58
2022/11/26 08:46:20;;;;;;;;;9.00;7.40;;;;;8.07;81.47;101180.19;5091195;28;8842;-58
2022/11/26 08:48:48;;;;;;;;;10.00;9.20;;;;;8.12;80.98;101186.97;5090425;28;8846;-58
2022/11/26 08:51:16;;;;;;;;;10.00;9.20;;;;;8.18;81.71;101184.03;5091321;28;8842;-59
2022/11/26 08:53:44;;;;;;;;;9.40;6.80;;;;;8.23;81.04;101182.03;5098904;28;8832;-59
2022/11/26 08:56:12;;;;;;;;;10.60;8.80;;;;;8.29;81.06;101176.41;5112215;28;8836;-59
2022/11/26 08:58:40;;;;;;;;;7.00;6.00;;;;;8.33;81.29;101164.72;5113384;28;8851;-58
2022/11/26 09:01:08;;;;;;;;;14.00;12.40;;;;;8.37;80.84;101166.25;5113553;28;8819;-58
2022/11/26 09:03:36;;;;;;;;;7.25;4.00;;;;;8.44;81.34;101175.63;5114304;28;8969;-59
2022/11/26 09:06:04;;;;;;;;;9.60;9.60;;;;;8.48;81.11;101169.22;5113378;28;8861;-57
2022/11/26 09:08:43;;;;;;;;;3.75;3.00;;;;;8.54;80.73;101179.53;5113259;28;8847;-59
2022/11/26 09:11:13;;;;;;;;;6.80;6.40;;;;;8.60;80.98;101175.69;5113594;28;9512;-59
2022/11/26 09:13:40;;;;;;;;;8.25;6.50;;;;;8.63;81.19;101167.56;5113745;28;8843;-59
2022/11/26 09:16:08;;;;;;;;;3.50;3.00;;;;;8.67;81.24;101175.28;5114145;28;8824;-58
2022/11/26 09:18:36;;;;;;;;;7.00;6.50;;;;;8.72;80.68;101178.56;5114673;28;9525;-59
2022/11/26 09:21:04;;;;;;;;;9.00;7.00;;;;;8.78;81.03;101182.69;5117247;28;8856;-59
2022/11/26 09:23:32;;;;;;;;;10.00;9.00;;;;;8.83;81.00;101184.16;5116475;28;8979;-59
2022/11/26 09:25:59;;;;;;;;;12.00;9.50;;;;;8.90;80.87;101184.72;5115797;28;8832;-59
2022/11/26 09:28:28;;;;;;;;;5.00;4.50;;;;;8.98;80.77;101187.81;5114487;28;8832;-59
2022/11/26 09:30:55;;;;;;;;;8.00;7.00;;;;;9.04;80.48;101188.34;5114378;28;8832;-58
2022/11/26 09:33:23;;;;;;;;;7.00;6.25;;;;;9.13;80.17;101187.00;5114308;28;8824;-58
2022/11/26 09:35:52;;;;;;;;;6.00;6.00;;;;;9.23;80.13;101191.75;5113471;28;8974;-59
2022/11/26 09:38:19;;;;;;;;;11.00;9.50;;;;;9.31;80.15;101204.59;5114127;28;8862;-58
2022/11/26 09:40:48;;;;;;;;;10.00;8.00;;;;;9.39;80.05;101200.59;5115183;28;8819;-58
2022/11/26 09:43:16;;;;;;;;;7.00;6.75;;;;;9.48;79.52;101208.06;5114558;28;8843;-59
2022/11/26 09:45:43;;;;;;;;;3.75;3.00;;;;;9.58;79.29;101205.75;5115003;28;8844;-59
2022/11/26 09:48:11;;;;;;;;;7.00;6.75;;;;;9.63;79.50;101207.22;5112291;28;8835;-59
2022/11/26 09:50:39;;;;;;;;;14.50;12.50;;;;;9.63;79.17;101206.38;5113020;28;9221;-59
2022/11/26 09:53:08;;;;;;;;;7.25;6.50;;;;;9.66;79.21;101217.66;5113138;28;8970;-58
2022/11/26 09:55:37;;;;;;;;;12.75;12.00;;;;;9.74;79.73;101203.97;5114186;28;8827;-59
2022/11/26 09:58:05;;;;;;;;;5.75;4.50;;;;;9.87;79.12;101207.66;5112879;28;9517;-59
2022/11/26 10:00:33;;;;;;;;;9.00;9.00;;;;;10.09;78.66;101210.84;5114292;28;9559;-59
2022/11/26 10:03:01;;;;;;;;;8.50;7.50;;;;;10.31;77.79;101211.31;5114928;28;8881;-59
2022/11/26 10:05:29;;;;;;;;;8.25;4.75;;;;;10.56;77.52;101211.59;5115324;28;9561;-59
2022/11/26 10:07:57;;;;;;;;;8.00;8.00;;;;;10.84;77.13;101209.84;5115029;28;8832;-59
2022/11/26 10:10:26;;;;;;;;;7.00;6.00;;;;;11.04;76.98;101211.28;5115832;28;8905;-59
2022/11/26 10:12:53;;;;;;;;;5.50;5.00;;;;;11.24;76.80;101206.44;5114293;28;8986;-59
2022/11/26 10:15:41;;;;;;;;;9.50;8.00;;;;;11.45;76.41;101202.44;5114155;28;8856;-59
2022/11/26 10:18:10;;;;;;;;;9.50;9.00;;;;;11.56;76.79;101197.28;5115206;28;8851;-59
2022/11/26 10:20:38;;;;;;;;;6.75;6.75;;;;;11.60;76.25;101193.50;5114968;28;8828;-59
2022/11/26 10:23:06;;;;;;;;;7.00;6.50;;;;;11.59;76.26;101196.28;5115067;28;8831;-58
2022/11/26 10:25:33;;;;;;;;;7.50;6.75;;;;;11.47;76.22;101192.53;5114982;28;8835;-59
2022/11/26 10:28:01;;;;;;;;;6.00;5.50;;;;;11.42;76.42;101199.09;5114051;28;8850;-56
2022/11/26 10:30:31;;;;;;;;;9.50;8.50;;;;;11.42;76.54;101197.31;5113843;28;8938;-59
2022/11/26 10:32:59;;;;;;;;;9.50;7.00;;;;;11.44;76.78;101194.56;5113327;28;8873;-58
2022/11/26 10:35:29;;;;;;;;;9.00;7.50;;;;;11.48;76.39;101194.25;5113535;28;8921;-58
2022/11/26 10:37:57;;;;;;;;;6.25;6.00;;;;;11.51;76.04;101198.53;5113685;28;8969;-59
2022/11/26 10:40:25;;;;;;;;;5.50;4.00;;;;;11.54;75.83;101193.84;5112609;28;8832;-59
2022/11/26 10:42:53;;;;;;;;;8.50;8.50;;;;;11.54;75.85;101199.19;5113205;28;8820;-58
2022/11/26 10:45:21;;;;;;;;;7.00;7.00;;;;;11.51;76.03;101194.03;5113728;28;8940;-59
2022/11/26 10:47:50;;;;;;;;;7.50;6.50;;;;;11.50;76.10;101197.69;5113307;28;9528;-59
2022/11/26 10:50:18;;;;;;;;;5.50;5.00;;;;;11.52;75.71;101193.09;5112898;28;9598;-59
2022/11/26 10:53:06;;;;;;;;;6.25;6.25;;;;;11.54;75.92;101199.19;5112311;28;8990;-60
2022/11/26 10:55:34;;;;;;;;;3.00;2.50;;;;;11.55;75.83;101195.59;5113542;28;8900;-59
2022/11/26 10:58:04;;;;;;;;;6.75;5.50;;;;;11.54;76.03;101201.00;5113167;28;8873;-59
2022/11/26 11:00:32;;;;;;;;;4.00;4.00;;;;;11.55;76.24;101192.91;5113300;28;9667;-58
2022/11/26 11:03:00;;;;;;;;;6.50;5.00;;;;;11.55;75.69;101194.72;5112437;28;9010;-60
2022/11/26 11:05:28;;;;;;;;;5.25;4.00;;;;;11.55;75.69;101190.25;5113320;28;8832;-59
2022/11/26 11:07:57;;;;;;;;;4.50;4.50;;;;;11.58;75.65;101199.88;5112792;28;8831;-57
2022/11/26 11:10:25;;;;;;;;;3.00;3.00;;;;;11.60;75.71;101198.81;5112256;28;8930;-59
2022/11/26 11:12:53;;;;;;;;;3.50;3.50;;;;;11.59;75.74;101191.78;5112191;28;8975;-58
2022/11/26 11:15:21;;;;;;;;;3.75;3.75;;;;;11.60;75.87;101188.16;5111597;28;8836;-59
2022/11/26 11:17:49;;;;;;;;;4.00;3.00;;;;;11.60;75.60;101187.31;5110062;28;8890;-58
2022/11/26 11:20:17;;;;;;;;;4.00;4.00;;;;;11.59;75.38;101189.13;5111466;28;8832;-58
2022/11/26 11:22:45;;;;;;;;;3.00;3.00;;;;;11.67;75.31;101183.31;5111008;28;8870;-56
2022/11/26 11:25:13;;;;;;;;;3.50;3.50;;;;;11.71;75.51;101184.81;5111379;28;8828;-59
2022/11/26 11:27:42;;;;;;;;;3.00;3.00;;;;;11.77;75.77;101185.28;5110458;28;8889;-59
2022/11/26 11:30:10;;;;;;;;;3.75;3.75;;;;;11.82;75.07;101183.16;5110322;28;8940;-58
2022/11/26 11:32:39;;;;;;;;;3.25;3.00;;;;;11.82;75.12;101177.81;5111348;28;8840;-58
2022/11/26 11:35:07;;;;;;;;;2.00;2.00;;;;;11.85;75.14;101182.97;5111415;28;8849;-59
2022/11/26 11:37:35;;;;;;;;;4.00;3.00;;;;;11.91;74.34;101177.22;5112284;28;8808;-59
2022/11/26 11:40:03;;;;;;;;;1.00;1.00;;;;;11.99;75.14;101177.56;5111155;28;8844;-57